Archival Weather

Chicago O'Hare International

Chicago, Illinois (KORD)

Report from: Thursday, May 11, 2023 6:51 AM CDT
Current time: Sunday, February 25, 2024 4:55 PM CST

Current weather – Weather history – Daily summaries
Weather forecast

Temperature15.6°C (60.1°F)
Dew point7.8°C (46.0°F)
Winds 3 kts (1.5 m/s, 3.5 mph) Southeast (140°)
Visibility10 mi. (16.1 km)
Clouds Few clouds 18,000 ft. (5,486 m)
Scattered clouds 30,000 ft. (9,144 m)
Altimeter30.11 in.Hg (1020 mB)
Relative humidity60 %
Density altitude19 ft. (6 m)
Sea-level pressure101.9 kPa (1019 mB, 30.10 in.Hg)
Max temp last 6 hours15.6°C (60.1°F)
Min temp last 6 hours12.8°C (55.0°F)
Remarks Automated weather observing station with precipitation discriminator
Pressure rising more quickly
Flight conditions Visual Meteorological Conditions
Raw dataKORD 111151Z 14003KT 10SM FEW180 SCT300 16/08 A3011 RMK AO2 SLP193 T01560078 10156 20128 53005
An error has occurred. This application may no longer respond until reloaded. Reload 🗙